Time,TemperatureF,DewpointF,PressureIn,WindDirection,WindDirectionDegrees,WindSpeedMPH,WindSpeedGustMPH,Humidity,HourlyPrecipIn,Conditions,Clouds,dailyrainin,SoftwareType,DateUTC
2013-03-19 00:00:00,52.6,52.0,29.90,SW,215,1.0,6.0,98,0.00,,---,0.70,VWS V14.00,2013-03-19 04:00:00,
2013-03-19 00:05:00,52.7,52.2,29.91,SSW,197,0.0,2.0,98,0.00,,---,0.00,VWS V14.00,2013-03-19 04:05:00,
2013-03-19 00:10:00,52.7,52.2,29.90,SSW,197,0.0,2.0,98,0.00,,---,0.00,VWS V14.00,2013-03-19 04:10:00,
2013-03-19 00:15:00,52.6,52.0,29.90,SSW,197,0.0,1.0,98,0.00,,---,0.00,VWS V14.00,2013-03-19 04:15:00,
2013-03-19 00:20:00,52.6,52.0,29.91,SSW,197,0.0,1.0,98,0.00,,---,0.00,VWS V14.00,2013-03-19 04:20:00,
2013-03-19 00:25:00,52.5,52.0,29.91,SSW,197,0.0,0.0,98,0.00,,---,0.00,VWS V14.00,2013-03-19 04:25:00,
2013-03-19 00:30:00,52.5,52.0,29.91,SSW,197,0.0,0.0,98,0.00,,---,0.00,VWS V14.00,2013-03-19 04:30:00,
2013-03-19 00:35:00,52.5,52.0,29.91,SSW,197,0.0,2.0,98,0.00,,---,0.00,VWS V14.00,2013-03-19 04:35:00,
2013-03-19 00:40:00,52.5,52.0,29.91,SSW,197,0.0,0.0,98,0.00,,---,0.00,VWS V14.00,2013-03-19 04:40:00,
2013-03-19 00:45:00,52.4,51.8,29.91,SSW,197,0.0,0.0,98,0.00,,---,0.00,VWS V14.00,2013-03-19 04:45:00,
2013-03-19 00:50:00,52.4,51.8,29.91,SSW,197,0.0,0.0,98,0.00,,---,0.00,VWS V14.00,2013-03-19 04:50:00,
2013-03-19 00:55:00,52.4,51.8,29.91,SSW,197,0.0,0.0,98,0.00,,---,0.00,VWS V14.00,2013-03-19 04:55:00,
2013-03-19 01:00:00,52.4,51.8,29.91,SSW,197,0.0,0.0,98,0.00,,---,0.00,VWS V14.00,2013-03-19 05:00:00,
2013-03-19 01:05:00,52.4,51.8,29.91,SSW,197,0.0,0.0,98,0.00,,---,0.00,VWS V14.00,2013-03-19 05:05:00,
2013-03-19 01:10:00,52.4,51.8,29.91,SSW,197,0.0,0.0,98,0.00,,---,0.00,VWS V14.00,2013-03-19 05:10:00,
2013-03-19 01:15:00,52.4,51.8,29.91,SSW,197,0.0,0.0,98,0.00,,---,0.00,VWS V14.00,2013-03-19 05:15:00,
2013-03-19 01:20:00,52.3,51.8,29.91,SSW,197,0.0,0.0,98,0.00,,---,0.00,VWS V14.00,2013-03-19 05:20:00,
2013-03-19 01:25:00,52.3,51.8,29.91,SSW,197,0.0,0.0,98,0.00,,---,0.00,VWS V14.00,2013-03-19 05:25:00,
2013-03-19 01:30:00,52.3,51.8,29.91,SSW,197,0.0,0.0,98,0.00,,---,0.00,VWS V14.00,2013-03-19 05:30:00,
2013-03-19 01:35:00,52.3,51.8,29.91,SSW,197,0.0,0.0,98,0.00,,---,0.00,VWS V14.00,2013-03-19 05:35:00,
2013-03-19 01:40:00,52.2,51.7,29.91,SSW,197,0.0,1.0,98,0.00,,---,0.00,VWS V14.00,2013-03-19 05:40:00,
2013-03-19 01:45:00,52.2,51.7,29.90,SSW,197,0.0,0.0,98,0.00,,---,0.00,VWS V14.00,2013-03-19 05:45:00,
2013-03-19 01:50:00,52.1,51.3,29.90,SSW,197,0.0,1.0,97,0.00,,---,0.00,VWS V14.00,2013-03-19 05:50:00,
2013-03-19 01:55:00,52.1,51.3,29.91,SSW,197,0.0,0.0,97,0.00,,---,0.00,VWS V14.00,2013-03-19 05:55:00,
2013-03-19 02:00:00,52.0,51.2,29.91,SSW,197,0.0,0.0,97,0.00,,---,0.00,VWS V14.00,2013-03-19 06:00:00,
2013-03-19 02:05:00,52.0,51.2,29.92,SSW,197,0.0,1.0,97,0.00,,---,0.00,VWS V14.00,2013-03-19 06:05:00,
2013-03-19 02:10:00,52.0,51.5,29.92,SSW,197,0.0,1.0,98,0.00,,---,0.00,VWS V14.00,2013-03-19 06:10:00,
2013-03-19 02:15:00,51.9,51.1,29.92,SSW,197,0.0,0.0,97,0.00,,---,0.00,VWS V14.00,2013-03-19 06:15:00,
2013-03-19 02:20:00,51.9,51.4,29.93,SSW,197,0.0,0.0,98,0.00,,---,0.00,VWS V14.00,2013-03-19 06:20:00,
2013-03-19 02:25:00,51.9,51.4,29.93,SSW,197,0.0,2.0,98,0.00,,---,0.00,VWS V14.00,2013-03-19 06:25:00,
2013-03-19 02:30:00,51.9,51.4,29.93,SSW,197,0.0,2.0,98,0.00,,---,0.00,VWS V14.00,2013-03-19 06:30:00,
2013-03-19 02:35:00,51.8,51.3,29.94,SSW,197,0.0,0.0,98,0.00,,---,0.00,VWS V14.00,2013-03-19 06:35:00,
2013-03-19 02:40:00,51.9,51.4,29.94,SSW,197,0.0,2.0,98,0.00,,---,0.00,VWS V14.00,2013-03-19 06:40:00,
2013-03-19 02:45:00,51.9,51.4,29.94,SSW,197,0.0,1.0,98,0.00,,---,0.00,VWS V14.00,2013-03-19 06:45:00,
2013-03-19 02:50:00,51.7,51.2,29.95,East,90,0.0,3.0,98,0.00,,---,0.00,VWS V14.00,2013-03-19 06:50:00,
2013-03-19 02:55:00,51.6,51.1,29.95,East,90,0.0,0.0,98,0.00,,---,0.00,VWS V14.00,2013-03-19 06:55:00,
2013-03-19 03:00:00,51.5,50.7,29.95,East,90,0.0,0.0,97,0.00,,---,0.00,VWS V14.00,2013-03-19 07:00:00,
2013-03-19 03:05:00,51.4,50.6,29.95,East,90,0.0,0.0,97,0.00,,---,0.00,VWS V14.00,2013-03-19 07:05:00,
2013-03-19 03:10:00,51.2,50.4,29.95,ENE,67,0.0,3.0,97,0.00,,---,0.00,VWS V14.00,2013-03-19 07:10:00,
2013-03-19 03:15:00,50.9,50.1,29.96,NNW,338,0.0,2.0,97,0.00,,---,0.00,VWS V14.00,2013-03-19 07:15:00,
2013-03-19 03:20:00,50.8,50.0,29.96,NNW,338,0.0,2.0,97,0.00,,---,0.00,VWS V14.00,2013-03-19 07:20:00,
2013-03-19 03:25:00,50.6,49.8,29.96,NNW,338,0.0,0.0,97,0.00,,---,0.00,VWS V14.00,2013-03-19 07:25:00,
2013-03-19 03:30:00,50.5,49.4,29.96,NNW,333,0.0,8.0,96,0.00,,---,0.00,VWS V14.00,2013-03-19 07:30:00,
2013-03-19 03:35:00,50.2,49.1,29.96,North,9,6.0,6.0,96,0.00,,---,0.00,VWS V14.00,2013-03-19 07:35:00,
2013-03-19 03:40:00,50.0,48.9,29.97,WNW,286,0.0,6.0,96,0.00,,---,0.00,VWS V14.00,2013-03-19 07:40:00,
2013-03-19 03:45:00,49.7,48.3,29.97,NNW,336,1.0,6.0,95,0.00,,---,0.00,VWS V14.00,2013-03-19 07:45:00,
2013-03-19 03:50:00,49.4,47.8,29.98,WNW,284,0.0,6.0,94,0.00,,---,0.00,VWS V14.00,2013-03-19 07:50:00,
2013-03-19 03:55:00,49.0,47.1,29.98,WNW,288,0.0,6.0,93,0.00,,---,0.00,VWS V14.00,2013-03-19 07:55:00,
2013-03-19 04:00:00,48.7,46.5,29.98,NW,309,2.0,6.0,92,0.00,,---,0.00,VWS V14.00,2013-03-19 08:00:00,
2013-03-19 04:05:00,48.5,46.3,29.99,NW,309,0.0,4.0,92,0.00,,---,0.00,VWS V14.00,2013-03-19 08:05:00,
2013-03-19 04:10:00,48.2,46.0,29.99,NNE,26,0.0,6.0,92,0.00,,---,0.00,VWS V14.00,2013-03-19 08:10:00,
2013-03-19 04:15:00,48.0,45.2,29.99,West,261,1.0,5.0,90,0.00,,---,0.00,VWS V14.00,2013-03-19 08:15:00,
2013-03-19 04:20:00,47.7,44.3,29.99,SW,221,0.0,7.0,88,0.00,,---,0.00,VWS V14.00,2013-03-19 08:20:00,
2013-03-19 04:25:00,47.3,43.6,29.99,SSE,157,0.0,6.0,87,0.00,,---,0.00,VWS V14.00,2013-03-19 08:25:00,
2013-03-19 04:30:00,46.9,43.2,30.00,West,264,1.0,6.0,87,0.00,,---,0.00,VWS V14.00,2013-03-19 08:30:00,
2013-03-19 04:35:00,46.5,42.5,30.01,West,277,0.0,5.0,86,0.00,,---,0.00,VWS V14.00,2013-03-19 08:35:00,
2013-03-19 04:40:00,46.3,42.7,30.01,West,277,1.0,5.0,87,0.00,,---,0.00,VWS V14.00,2013-03-19 08:40:00,
2013-03-19 04:45:00,46.0,42.0,30.02,West,277,0.0,3.0,86,0.00,,---,0.00,VWS V14.00,2013-03-19 08:45:00,
2013-03-19 04:50:00,45.7,41.8,30.01,WNW,302,1.0,3.0,86,0.00,,---,0.00,VWS V14.00,2013-03-19 08:50:00,
2013-03-19 04:55:00,45.5,41.6,30.01,NW,306,1.0,4.0,86,0.00,,---,0.00,VWS V14.00,2013-03-19 08:55:00,
2013-03-19 05:00:00,45.3,41.7,30.01,NNE,13,0.0,7.0,87,0.00,,---,0.00,VWS V14.00,2013-03-19 09:00:00,
2013-03-19 05:05:00,45.1,41.5,30.02,NNE,27,0.0,5.0,87,0.00,,---,0.00,VWS V14.00,2013-03-19 09:05:00,
2013-03-19 05:10:00,44.8,41.2,30.02,NNE,28,0.0,5.0,87,0.00,,---,0.00,VWS V14.00,2013-03-19 09:10:00,
2013-03-19 05:15:00,44.5,40.9,30.03,ENE,70,0.0,3.0,87,0.00,,---,0.00,VWS V14.00,2013-03-19 09:15:00,
2013-03-19 05:20:00,44.3,40.4,30.03,North,351,1.0,3.0,86,0.00,,---,0.00,VWS V14.00,2013-03-19 09:20:00,
2013-03-19 05:25:00,44.2,40.0,30.04,North,351,0.0,4.0,85,0.00,,---,0.00,VWS V14.00,2013-03-19 09:25:00,
2013-03-19 05:30:00,44.0,39.5,30.03,NNE,27,0.0,4.0,84,0.00,,---,0.00,VWS V14.00,2013-03-19 09:30:00,
2013-03-19 05:35:00,43.8,39.0,30.04,NNE,15,1.0,2.0,83,0.00,,---,0.00,VWS V14.00,2013-03-19 09:35:00,
2013-03-19 05:40:00,43.6,39.1,30.04,West,269,0.0,3.0,84,0.00,,---,0.00,VWS V14.00,2013-03-19 09:40:00,
2013-03-19 05:45:00,43.3,38.8,30.04,WNW,284,0.0,2.0,84,0.00,,---,0.00,VWS V14.00,2013-03-19 09:45:00,
2013-03-19 05:50:00,43.0,38.2,30.04,West,273,1.0,2.0,83,0.00,,---,0.00,VWS V14.00,2013-03-19 09:50:00,
2013-03-19 05:55:00,42.7,37.6,30.05,West,270,0.0,2.0,82,0.00,,---,0.00,VWS V14.00,2013-03-19 09:55:00,
2013-03-19 06:00:00,42.5,37.1,30.05,NNW,336,0.0,3.0,81,0.00,,---,0.00,VWS V14.00,2013-03-19 10:00:00,
2013-03-19 06:05:00,42.3,37.2,30.05,NE,35,0.0,4.0,82,0.00,,---,0.00,VWS V14.00,2013-03-19 10:05:00,
2013-03-19 06:10:00,42.1,37.0,30.05,NE,35,0.0,4.0,82,0.00,,---,0.00,VWS V14.00,2013-03-19 10:10:00,
2013-03-19 06:15:00,41.8,36.7,30.06,NE,53,0.0,2.0,82,0.00,,---,0.00,VWS V14.00,2013-03-19 10:15:00,
2013-03-19 06:20:00,41.4,36.6,30.05,NE,53,0.0,2.0,83,0.00,,---,0.00,VWS V14.00,2013-03-19 10:20:00,
2013-03-19 06:25:00,41.1,36.3,30.05,NE,53,0.0,0.0,83,0.00,,---,0.00,VWS V14.00,2013-03-19 10:25:00,
2013-03-19 06:30:00,40.8,36.3,30.06,NE,53,0.0,0.0,84,0.00,,---,0.00,VWS V14.00,2013-03-19 10:30:00,
2013-03-19 06:35:00,40.5,36.0,30.06,NE,53,0.0,0.0,84,0.00,,---,0.00,VWS V14.00,2013-03-19 10:35:00,
2013-03-19 06:40:00,40.2,35.8,30.07,NE,53,0.0,0.0,84,0.00,,---,0.00,VWS V14.00,2013-03-19 10:40:00,
2013-03-19 06:45:00,39.9,35.8,30.06,NE,53,0.0,0.0,85,0.00,,---,0.00,VWS V14.00,2013-03-19 10:45:00,
2013-03-19 06:50:00,39.6,35.5,30.06,NE,53,0.0,0.0,85,0.00,,---,0.00,VWS V14.00,2013-03-19 10:50:00,
2013-03-19 06:55:00,39.3,35.5,30.07,NE,53,0.0,0.0,86,0.00,,---,0.00,VWS V14.00,2013-03-19 10:55:00,
2013-03-19 07:00:00,39.1,35.6,30.06,NE,53,0.0,0.0,87,0.00,,---,0.00,VWS V14.00,2013-03-19 11:00:00,
2013-03-19 07:05:00,38.8,35.6,30.07,NE,53,0.0,0.0,88,0.00,,---,0.00,VWS V14.00,2013-03-19 11:05:00,
2013-03-19 07:10:00,38.5,35.5,30.07,NE,53,0.0,0.0,89,0.00,,---,0.00,VWS V14.00,2013-03-19 11:10:00,
2013-03-19 07:15:00,38.2,35.2,30.06,NE,53,0.0,0.0,89,0.00,,---,0.00,VWS V14.00,2013-03-19 11:15:00,
2013-03-19 07:20:00,37.8,35.1,30.06,NE,53,0.0,0.0,90,0.00,,---,0.00,VWS V14.00,2013-03-19 11:20:00,
2013-03-19 07:25:00,37.5,34.8,30.06,NE,53,0.0,0.0,90,0.00,,---,0.00,VWS V14.00,2013-03-19 11:25:00,
2013-03-19 07:30:00,37.1,34.4,30.07,NE,53,0.0,0.0,90,0.00,,---,0.00,VWS V14.00,2013-03-19 11:30:00,
2013-03-19 07:35:00,36.8,34.4,30.07,NE,53,0.0,0.0,91,0.00,,---,0.00,VWS V14.00,2013-03-19 11:35:00,
2013-03-19 07:40:00,36.6,34.2,30.07,NE,53,0.0,0.0,91,0.00,,---,0.00,VWS V14.00,2013-03-19 11:40:00,
2013-03-19 07:45:00,36.4,34.0,30.07,NE,53,0.0,0.0,91,0.00,,---,0.00,VWS V14.00,2013-03-19 11:45:00,
2013-03-19 07:50:00,36.2,34.1,30.07,NE,53,0.0,0.0,92,0.00,,---,0.00,VWS V14.00,2013-03-19 11:50:00,
2013-03-19 07:55:00,35.9,33.8,30.07,NE,53,0.0,0.0,92,0.00,,---,0.00,VWS V14.00,2013-03-19 11:55:00,
2013-03-19 08:00:00,35.7,33.6,30.07,NE,53,0.0,0.0,92,0.00,,---,0.00,VWS V14.00,2013-03-19 12:00:00,
2013-03-19 08:05:00,35.5,33.4,30.07,NE,53,0.0,0.0,92,0.00,,---,0.00,VWS V14.00,2013-03-19 12:05:00,
2013-03-19 08:10:00,35.4,33.3,30.07,NE,53,0.0,0.0,92,0.00,,---,0.00,VWS V14.00,2013-03-19 12:10:00,
2013-03-19 08:15:00,35.3,33.5,30.07,NE,53,0.0,0.0,93,0.00,,---,0.00,VWS V14.00,2013-03-19 12:15:00,
2013-03-19 08:20:00,35.3,33.5,30.06,NE,53,0.0,0.0,93,0.00,,---,0.00,VWS V14.00,2013-03-19 12:20:00,
2013-03-19 08:25:00,35.2,33.4,30.07,NE,53,0.0,0.0,93,0.00,,---,0.00,VWS V14.00,2013-03-19 12:25:00,
2013-03-19 08:30:00,35.2,33.7,30.07,NE,53,0.0,0.0,94,0.00,,---,0.00,VWS V14.00,2013-03-19 12:30:00,
2013-03-19 08:35:00,35.3,33.8,30.06,NE,53,0.0,0.0,94,0.00,,---,0.00,VWS V14.00,2013-03-19 12:35:00,
2013-03-19 08:40:00,35.5,34.2,30.07,NE,53,0.0,0.0,95,0.00,,---,0.00,VWS V14.00,2013-03-19 12:40:00,
2013-03-19 08:45:00,36.0,34.7,30.07,NE,53,0.0,0.0,95,0.00,,---,0.00,VWS V14.00,2013-03-19 12:45:00,
2013-03-19 08:50:00,36.6,35.6,30.06,NE,53,0.0,0.0,96,0.00,,---,0.00,VWS V14.00,2013-03-19 12:50:00,
2013-03-19 08:55:00,37.6,36.6,30.06,NE,53,0.0,0.0,96,0.00,,---,0.00,VWS V14.00,2013-03-19 12:55:00,
2013-03-19 09:00:00,38.7,37.7,30.06,NE,53,0.0,1.0,96,0.00,,---,0.00,VWS V14.00,2013-03-19 13:00:00,
2013-03-19 09:05:00,39.6,38.6,30.07,NE,53,0.0,0.0,96,0.00,,---,0.00,VWS V14.00,2013-03-19 13:05:00,
2013-03-19 09:10:00,40.6,39.5,30.07,NE,53,0.0,1.0,96,0.00,,---,0.00,VWS V14.00,2013-03-19 13:10:00,
2013-03-19 09:15:00,41.8,40.5,30.07,NE,53,1.0,1.0,95,0.00,,---,0.00,VWS V14.00,2013-03-19 13:15:00,
2013-03-19 09:20:00,42.7,40.5,30.07,NE,53,0.0,1.0,92,0.00,,---,0.00,VWS V14.00,2013-03-19 13:20:00,
2013-03-19 09:25:00,43.6,40.3,30.07,NE,53,2.0,3.0,88,0.00,,---,0.00,VWS V14.00,2013-03-19 13:25:00,
2013-03-19 09:30:00,44.4,39.9,30.08,NNE,14,0.0,4.0,84,0.00,,---,0.00,VWS V14.00,2013-03-19 13:30:00,
2013-03-19 09:35:00,45.2,40.0,30.08,NNE,28,0.0,4.0,82,0.00,,---,0.00,VWS V14.00,2013-03-19 13:35:00,
2013-03-19 09:40:00,46.1,39.6,30.08,NNE,28,0.0,4.0,78,0.00,,---,0.00,VWS V14.00,2013-03-19 13:40:00,
2013-03-19 09:45:00,47.0,40.2,30.08,NNE,24,0.0,4.0,77,0.00,,---,0.00,VWS V14.00,2013-03-19 13:45:00,
2013-03-19 09:50:00,47.6,39.0,30.08,ENE,58,1.0,4.0,72,0.00,,---,0.00,VWS V14.00,2013-03-19 13:50:00,
2013-03-19 09:55:00,48.0,38.7,30.08,NE,48,0.0,4.0,70,0.00,,---,0.00,VWS V14.00,2013-03-19 13:55:00,
2013-03-19 10:00:00,48.3,38.2,30.08,NNE,27,3.0,6.0,68,0.00,,---,0.00,VWS V14.00,2013-03-19 14:00:00,
2013-03-19 10:05:00,48.5,39.5,30.09,NE,55,0.0,4.0,71,0.00,,---,0.00,VWS V14.00,2013-03-19 14:05:00,
2013-03-19 10:10:00,48.9,38.8,30.09,NE,36,1.0,4.0,68,0.00,,---,0.00,VWS V14.00,2013-03-19 14:10:00,
2013-03-19 10:15:00,49.4,39.3,30.09,NE,45,0.0,5.0,68,0.00,,---,0.00,VWS V14.00,2013-03-19 14:15:00,
2013-03-19 10:20:00,49.8,38.9,30.09,ENE,65,0.0,5.0,66,0.00,,---,0.00,VWS V14.00,2013-03-19 14:20:00,
2013-03-19 10:25:00,50.1,38.8,30.09,ENE,73,0.0,5.0,65,0.00,,---,0.00,VWS V14.00,2013-03-19 14:25:00,
2013-03-19 10:30:00,50.6,39.7,30.09,NE,46,0.0,5.0,66,0.00,,---,0.00,VWS V14.00,2013-03-19 14:30:00,
2013-03-19 10:35:00,51.0,40.1,30.09,ENE,61,0.0,5.0,66,0.00,,---,0.00,VWS V14.00,2013-03-19 14:35:00,
2013-03-19 10:40:00,51.3,39.5,30.09,NE,49,0.0,6.0,64,0.00,,---,0.00,VWS V14.00,2013-03-19 14:40:00,
2013-03-19 10:45:00,51.4,38.4,30.09,NNW,344,1.0,5.0,61,0.00,,---,0.00,VWS V14.00,2013-03-19 14:45:00,
2013-03-19 10:50:00,51.2,38.6,30.09,SE,145,2.0,7.0,62,0.00,,---,0.00,VWS V14.00,2013-03-19 14:50:00,
2013-03-19 10:55:00,51.4,38.0,30.10,SSW,213,4.0,7.0,60,0.00,,---,0.00,VWS V14.00,2013-03-19 14:55:00,
2013-03-19 11:00:00,51.5,37.2,30.09,East,90,1.0,7.0,58,0.00,,---,0.00,VWS V14.00,2013-03-19 15:00:00,
2013-03-19 11:05:00,51.7,37.8,30.09,NE,35,2.0,6.0,59,0.00,,---,0.00,VWS V14.00,2013-03-19 15:05:00,
2013-03-19 11:10:00,51.9,38.5,30.10,ENE,61,4.0,7.0,60,0.00,,---,0.00,VWS V14.00,2013-03-19 15:10:00,
2013-03-19 11:15:00,52.1,37.3,30.10,ENE,73,0.0,4.0,57,0.00,,---,0.00,VWS V14.00,2013-03-19 15:15:00,
2013-03-19 11:20:00,52.4,37.6,30.10,NE,47,0.0,5.0,57,0.00,,---,0.00,VWS V14.00,2013-03-19 15:20:00,
2013-03-19 11:25:00,52.7,37.5,30.10,NNE,18,2.0,10.0,56,0.00,,---,0.00,VWS V14.00,2013-03-19 15:25:00,
2013-03-19 11:30:00,52.5,37.3,30.10,NE,53,0.0,10.0,56,0.00,,---,0.00,VWS V14.00,2013-03-19 15:30:00,
2013-03-19 11:35:00,52.4,38.5,30.10,ENE,74,0.0,5.0,59,0.00,,---,0.00,VWS V14.00,2013-03-19 15:35:00,
2013-03-19 11:40:00,52.8,38.9,30.10,ENE,61,3.0,6.0,59,0.00,,---,0.00,VWS V14.00,2013-03-19 15:40:00,
2013-03-19 11:45:00,52.9,36.7,30.10,NNW,329,6.0,10.0,54,0.00,,---,0.00,VWS V14.00,2013-03-19 15:45:00,
2013-03-19 11:50:00,53.0,36.3,30.10,NE,40,2.0,10.0,53,0.00,,---,0.00,VWS V14.00,2013-03-19 15:50:00,
2013-03-19 11:55:00,53.3,37.1,30.10,NE,40,5.0,7.0,54,0.00,,---,0.00,VWS V14.00,2013-03-19 15:55:00,
2013-03-19 12:00:00,53.3,37.1,30.11,SW,227,2.0,10.0,54,0.00,,---,0.00,VWS V14.00,2013-03-19 16:00:00,
2013-03-19 12:05:00,53.3,35.7,30.11,NNW,337,3.0,8.0,51,0.00,,---,0.00,VWS V14.00,2013-03-19 16:05:00,
2013-03-19 12:10:00,53.4,36.2,30.11,NW,323,2.0,8.0,52,0.00,,---,0.00,VWS V14.00,2013-03-19 16:10:00,
2013-03-19 12:15:00,53.7,37.0,30.11,NNE,32,4.0,7.0,53,0.00,,---,0.00,VWS V14.00,2013-03-19 16:15:00,
2013-03-19 12:20:00,53.8,36.6,30.10,North,5,5.0,7.0,52,0.00,,---,0.00,VWS V14.00,2013-03-19 16:20:00,
2013-03-19 12:25:00,54.0,36.8,30.10,NNE,30,4.0,5.0,52,0.00,,---,0.00,VWS V14.00,2013-03-19 16:25:00,
2013-03-19 12:30:00,54.3,37.1,30.10,ENE,76,2.0,5.0,52,0.00,,---,0.00,VWS V14.00,2013-03-19 16:30:00,
2013-03-19 12:35:00,54.7,37.4,30.10,NE,49,0.0,7.0,52,0.00,,---,0.00,VWS V14.00,2013-03-19 16:35:00,
2013-03-19 12:40:00,54.8,36.5,30.09,NW,314,6.0,7.0,50,0.00,,---,0.00,VWS V14.00,2013-03-19 16:40:00,
2013-03-19 12:45:00,54.6,36.3,30.09,WSW,252,0.0,7.0,50,0.00,,---,0.00,VWS V14.00,2013-03-19 16:45:00,
2013-03-19 12:50:00,54.7,36.9,30.10,NNE,24,5.0,8.0,51,0.00,,---,0.00,VWS V14.00,2013-03-19 16:50:00,
2013-03-19 12:55:00,54.9,37.1,30.10,West,271,2.0,9.0,51,0.00,,---,0.00,VWS V14.00,2013-03-19 16:55:00,
2013-03-19 13:00:00,55.2,36.4,30.10,East,80,5.0,9.0,49,0.00,,---,0.00,VWS V14.00,2013-03-19 17:00:00,
2013-03-19 13:05:00,55.4,37.6,30.10,ENE,65,1.0,8.0,51,0.00,,---,0.00,VWS V14.00,2013-03-19 17:05:00,
2013-03-19 13:10:00,55.5,37.7,30.10,ENE,61,1.0,8.0,51,0.00,,---,0.00,VWS V14.00,2013-03-19 17:10:00,
2013-03-19 13:15:00,55.8,38.0,30.10,NNE,32,0.0,6.0,51,0.00,,---,0.00,VWS V14.00,2013-03-19 17:15:00,
2013-03-19 13:20:00,56.2,37.3,30.10,NNE,12,1.0,6.0,49,0.00,,---,0.00,VWS V14.00,2013-03-19 17:20:00,
2013-03-19 13:25:00,56.5,37.1,30.10,NE,46,3.0,9.0,48,0.00,,---,0.00,VWS V14.00,2013-03-19 17:25:00,
2013-03-19 13:30:00,56.6,36.6,30.10,NNW,340,2.0,9.0,47,0.00,,---,0.00,VWS V14.00,2013-03-19 17:30:00,
2013-03-19 13:35:00,56.9,35.8,30.10,WSW,248,0.0,7.0,45,0.00,,---,0.00,VWS V14.00,2013-03-19 17:35:00,
2013-03-19 13:40:00,57.1,36.5,30.10,West,266,3.0,8.0,46,0.00,,---,0.00,VWS V14.00,2013-03-19 17:40:00,
2013-03-19 13:45:00,57.5,37.5,30.10,WNW,291,5.0,6.0,47,0.00,,---,0.00,VWS V14.00,2013-03-19 17:45:00,
2013-03-19 13:50:00,57.8,36.6,30.10,West,271,1.0,8.0,45,0.00,,---,0.00,VWS V14.00,2013-03-19 17:50:00,
2013-03-19 13:55:00,57.9,37.3,30.10,NNE,15,0.0,8.0,46,0.00,,---,0.00,VWS V14.00,2013-03-19 17:55:00,
2013-03-19 14:00:00,57.9,35.6,30.10,ENE,69,7.0,14.0,43,0.00,,---,0.00,VWS V14.00,2013-03-19 18:00:00,
2013-03-19 14:05:00,57.9,37.3,30.10,NNE,13,4.0,6.0,46,0.00,,---,0.00,VWS V14.00,2013-03-19 18:05:00,
2013-03-19 14:10:00,58.2,36.4,30.10,NNE,21,0.0,7.0,44,0.00,,---,0.00,VWS V14.00,2013-03-19 18:10:00,
2013-03-19 14:15:00,58.2,35.8,30.10,NNE,28,2.0,10.0,43,0.00,,---,0.00,VWS V14.00,2013-03-19 18:15:00,
2013-03-19 14:20:00,58.3,37.1,30.10,NE,42,0.0,10.0,45,0.00,,---,0.00,VWS V14.00,2013-03-19 18:20:00,
2013-03-19 14:25:00,58.5,36.7,30.10,NE,51,2.0,8.0,44,0.00,,---,0.00,VWS V14.00,2013-03-19 18:25:00,
2013-03-19 14:30:00,58.5,36.7,30.10,NNE,14,1.0,8.0,44,0.00,,---,0.00,VWS V14.00,2013-03-19 18:30:00,
2013-03-19 14:35:00,59.0,36.0,30.10,NNE,31,0.0,5.0,42,0.00,,---,0.00,VWS V14.00,2013-03-19 18:35:00,
2013-03-19 14:40:00,59.4,35.1,30.09,NNE,30,1.0,6.0,40,0.00,,---,0.00,VWS V14.00,2013-03-19 18:40:00,
2013-03-19 14:45:00,59.8,36.7,30.09,WNW,286,4.0,7.0,42,0.00,,---,0.00,VWS V14.00,2013-03-19 18:45:00,
2013-03-19 14:50:00,60.4,37.8,30.09,West,262,1.0,7.0,43,0.00,,---,0.00,VWS V14.00,2013-03-19 18:50:00,
2013-03-19 14:55:00,61.1,35.3,30.09,WSW,254,2.0,6.0,38,0.00,,---,0.00,VWS V14.00,2013-03-19 18:55:00,
2013-03-19 15:00:00,61.4,34.2,30.09,NW,316,4.0,8.0,36,0.00,,---,0.00,VWS V14.00,2013-03-19 19:00:00,
2013-03-19 15:05:00,61.4,34.9,30.09,WSW,244,2.0,7.0,37,0.00,,---,0.00,VWS V14.00,2013-03-19 19:05:00,
2013-03-19 15:10:00,61.8,36.6,30.09,West,277,2.0,7.0,39,0.00,,---,0.00,VWS V14.00,2013-03-19 19:10:00,
2013-03-19 15:15:00,62.5,36.6,30.09,North,5,1.0,6.0,38,0.00,,---,0.00,VWS V14.00,2013-03-19 19:15:00,
2013-03-19 15:20:00,62.6,33.9,30.09,North,360,3.0,8.0,34,0.00,,---,0.00,VWS V14.00,2013-03-19 19:20:00,
2013-03-19 15:25:00,62.3,34.3,30.09,ENE,59,0.0,5.0,35,0.00,,---,0.00,VWS V14.00,2013-03-19 19:25:00,
2013-03-19 15:30:00,62.2,34.2,30.09,ENE,63,1.0,9.0,35,0.00,,---,0.00,VWS V14.00,2013-03-19 19:30:00,
2013-03-19 15:35:00,61.9,33.2,30.08,NNW,336,1.0,7.0,34,0.00,,---,0.00,VWS V14.00,2013-03-19 19:35:00,
2013-03-19 15:40:00,62.0,35.5,30.09,WNW,284,3.0,8.0,37,0.00,,---,0.00,VWS V14.00,2013-03-19 19:40:00,
2013-03-19 15:45:00,62.7,34.7,30.09,WSW,252,0.0,5.0,35,0.00,,---,0.00,VWS V14.00,2013-03-19 19:45:00,
2013-03-19 15:50:00,63.2,36.5,30.09,NW,319,3.0,5.0,37,0.00,,---,0.00,VWS V14.00,2013-03-19 19:50:00,
2013-03-19 15:55:00,63.4,33.0,30.09,WNW,301,2.0,7.0,32,0.00,,---,0.00,VWS V14.00,2013-03-19 19:55:00,
2013-03-19 16:00:00,63.0,32.7,30.09,West,269,1.0,7.0,32,0.00,,---,0.00,VWS V14.00,2013-03-19 20:00:00,
2013-03-19 16:05:00,62.8,33.3,30.09,NNE,17,3.0,7.0,33,0.00,,---,0.00,VWS V14.00,2013-03-19 20:05:00,
2013-03-19 16:10:00,63.1,32.8,30.09,NNE,14,7.0,7.0,32,0.00,,---,0.00,VWS V14.00,2013-03-19 20:10:00,
2013-03-19 16:15:00,63.2,30.4,30.09,NW,306,2.0,8.0,29,0.00,,---,0.00,VWS V14.00,2013-03-19 20:15:00,
2013-03-19 16:20:00,63.1,31.2,30.09,North,360,4.0,10.0,30,0.00,,---,0.00,VWS V14.00,2013-03-19 20:20:00,
2013-03-19 16:25:00,63.1,30.4,30.08,NNW,337,5.0,10.0,29,0.00,,---,0.00,VWS V14.00,2013-03-19 20:25:00,
2013-03-19 16:30:00,62.8,30.9,30.08,WNW,287,3.0,10.0,30,0.00,,---,0.00,VWS V14.00,2013-03-19 20:30:00,
2013-03-19 16:35:00,62.8,32.5,30.08,NW,323,1.0,9.0,32,0.00,,---,0.00,VWS V14.00,2013-03-19 20:35:00,
2013-03-19 16:40:00,63.0,31.1,30.08,West,265,2.0,10.0,30,0.00,,---,0.00,VWS V14.00,2013-03-19 20:40:00,
2013-03-19 16:45:00,63.1,31.2,30.08,NNW,341,1.0,9.0,30,0.00,,---,0.00,VWS V14.00,2013-03-19 20:45:00,
2013-03-19 16:50:00,63.2,32.1,30.08,SSE,162,0.0,9.0,31,0.00,,---,0.00,VWS V14.00,2013-03-19 20:50:00,
2013-03-19 16:55:00,63.4,32.3,30.08,West,260,5.0,6.0,31,0.00,,---,0.00,VWS V14.00,2013-03-19 20:55:00,
2013-03-19 17:00:00,63.5,33.1,30.08,NW,313,0.0,6.0,32,0.00,,---,0.00,VWS V14.00,2013-03-19 21:00:00,
2013-03-19 17:05:00,64.0,33.6,30.08,NE,47,4.0,7.0,32,0.00,,---,0.00,VWS V14.00,2013-03-19 21:05:00,
2013-03-19 17:10:00,63.8,31.8,30.08,South,171,2.0,7.0,30,0.00,,---,0.00,VWS V14.00,2013-03-19 21:10:00,
2013-03-19 17:15:00,63.7,31.7,30.08,ENE,63,2.0,5.0,30,0.00,,---,0.00,VWS V14.00,2013-03-19 21:15:00,
2013-03-19 17:20:00,63.5,34.7,30.08,ENE,61,5.0,6.0,34,0.00,,---,0.00,VWS V14.00,2013-03-19 21:20:00,
2013-03-19 17:25:00,63.2,31.3,30.08,NNE,19,0.0,5.0,30,0.00,,---,0.00,VWS V14.00,2013-03-19 21:25:00,
2013-03-19 17:30:00,62.9,31.8,30.08,ESE,103,1.0,5.0,31,0.00,,---,0.00,VWS V14.00,2013-03-19 21:30:00,
2013-03-19 17:35:00,62.5,30.7,30.08,North,5,1.0,8.0,30,0.00,,---,0.00,VWS V14.00,2013-03-19 21:35:00,
2013-03-19 17:40:00,62.3,32.1,30.08,West,265,2.0,8.0,32,0.00,,---,0.00,VWS V14.00,2013-03-19 21:40:00,
2013-03-19 17:45:00,62.2,29.6,30.08,NE,46,2.0,7.0,29,0.00,,---,0.00,VWS V14.00,2013-03-19 21:45:00,
2013-03-19 17:50:00,61.7,30.8,30.08,NE,49,5.0,8.0,31,0.00,,---,0.00,VWS V14.00,2013-03-19 21:50:00,
2013-03-19 17:55:00,61.3,30.4,30.08,WNW,300,1.0,5.0,31,0.00,,---,0.00,VWS V14.00,2013-03-19 21:55:00,
2013-03-19 18:00:00,61.2,30.4,30.08,SW,224,0.0,5.0,31,0.00,,---,0.00,VWS V14.00,2013-03-19 22:00:00,
2013-03-19 18:05:00,60.9,29.3,30.09,North,5,0.0,7.0,30,0.00,,---,0.00,VWS V14.00,2013-03-19 22:05:00,
2013-03-19 18:10:00,60.5,28.1,30.08,NNE,13,2.0,10.0,29,0.00,,---,0.00,VWS V14.00,2013-03-19 22:10:00,
2013-03-19 18:15:00,60.0,29.3,30.08,NNE,30,0.0,6.0,31,0.00,,---,0.00,VWS V14.00,2013-03-19 22:15:00,
2013-03-19 18:20:00,59.9,29.2,30.08,NE,40,0.0,6.0,31,0.00,,---,0.00,VWS V14.00,2013-03-19 22:20:00,
2013-03-19 18:25:00,59.7,28.2,30.08,North,355,4.0,6.0,30,0.00,,---,0.00,VWS V14.00,2013-03-19 22:25:00,
2013-03-19 18:30:00,59.5,30.4,30.08,NNW,332,1.0,7.0,33,0.00,,---,0.00,VWS V14.00,2013-03-19 22:30:00,
2013-03-19 18:35:00,59.3,27.9,30.08,North,5,5.0,6.0,30,0.00,,---,0.00,VWS V14.00,2013-03-19 22:35:00,
2013-03-19 18:40:00,59.1,28.5,30.09,NNE,26,3.0,7.0,31,0.00,,---,0.00,VWS V14.00,2013-03-19 22:40:00,
2013-03-19 18:45:00,58.8,28.3,30.09,NNW,341,4.0,6.0,31,0.00,,---,0.00,VWS V14.00,2013-03-19 22:45:00,
2013-03-19 18:50:00,58.6,28.1,30.10,NNE,20,1.0,6.0,31,0.00,,---,0.00,VWS V14.00,2013-03-19 22:50:00,
2013-03-19 18:55:00,58.3,27.0,30.10,North,350,2.0,5.0,30,0.00,,---,0.00,VWS V14.00,2013-03-19 22:55:00,
2013-03-19 19:00:00,57.9,27.5,30.10,NNE,21,1.0,5.0,31,0.00,,---,0.00,VWS V14.00,2013-03-19 23:00:00,
2013-03-19 19:05:00,57.5,28.6,30.10,NNW,331,0.0,5.0,33,0.00,,---,0.00,VWS V14.00,2013-03-19 23:05:00,
2013-03-19 19:10:00,57.1,29.0,30.10,NE,43,0.0,5.0,34,0.00,,---,0.00,VWS V14.00,2013-03-19 23:10:00,
2013-03-19 19:15:00,56.7,28.7,30.10,ESE,108,4.0,4.0,34,0.00,,---,0.00,VWS V14.00,2013-03-19 23:15:00,
2013-03-19 19:20:00,56.4,27.7,30.10,NNE,24,2.0,5.0,33,0.00,,---,0.00,VWS V14.00,2013-03-19 23:20:00,
2013-03-19 19:25:00,56.1,28.8,30.10,North,10,0.0,6.0,35,0.00,,---,0.00,VWS V14.00,2013-03-19 23:25:00,
2013-03-19 19:30:00,55.7,28.5,30.10,NNW,328,6.0,8.0,35,0.00,,---,0.00,VWS V14.00,2013-03-19 23:30:00,
2013-03-19 19:35:00,55.4,28.2,30.11,North,5,2.0,3.0,35,0.00,,---,0.00,VWS V14.00,2013-03-19 23:35:00,
2013-03-19 19:40:00,55.1,27.3,30.10,NNE,14,1.0,5.0,34,0.00,,---,0.00,VWS V14.00,2013-03-19 23:40:00,
2013-03-19 19:45:00,54.8,28.4,30.11,NNE,15,0.0,1.0,36,0.00,,---,0.00,VWS V14.00,2013-03-19 23:45:00,
2013-03-19 19:50:00,54.5,28.8,30.10,NNW,347,0.0,2.0,37,0.00,,---,0.00,VWS V14.00,2013-03-19 23:50:00,
2013-03-19 19:55:00,54.2,28.5,30.11,North,5,0.0,1.0,37,0.00,,---,0.00,VWS V14.00,2013-03-19 23:55:00,
2013-03-19 20:00:00,53.8,27.5,30.10,NE,34,4.0,4.0,36,0.00,,---,0.00,VWS V14.00,2013-03-20 00:00:00,
2013-03-19 20:05:00,53.5,28.5,30.10,NW,319,0.0,2.0,38,0.00,,---,0.00,VWS V14.00,2013-03-20 00:05:00,
2013-03-19 20:10:00,53.2,28.3,30.10,NE,34,0.0,2.0,38,0.00,,---,0.00,VWS V14.00,2013-03-20 00:10:00,
2013-03-19 20:15:00,52.8,24.5,30.11,WNW,299,0.0,3.0,33,0.00,,---,0.00,VWS V14.00,2013-03-20 00:15:00,
2013-03-19 20:20:00,52.6,25.8,30.11,NW,313,0.0,3.0,35,0.00,,---,0.00,VWS V14.00,2013-03-20 00:20:00,
2013-03-19 20:25:00,52.4,25.6,30.10,NW,313,0.0,2.0,35,0.00,,---,0.00,VWS V14.00,2013-03-20 00:25:00,
2013-03-19 20:30:00,52.1,25.3,30.11,NW,313,0.0,2.0,35,0.00,,---,0.00,VWS V14.00,2013-03-20 00:30:00,
2013-03-19 20:35:00,51.8,26.4,30.11,NW,313,0.0,1.0,37,0.00,,---,0.00,VWS V14.00,2013-03-20 00:35:00,
2013-03-19 20:40:00,51.5,24.8,30.10,NW,306,0.0,4.0,35,0.00,,---,0.00,VWS V14.00,2013-03-20 00:40:00,
2013-03-19 20:45:00,51.3,23.2,30.10,NNW,342,3.0,3.0,33,0.00,,---,0.00,VWS V14.00,2013-03-20 00:45:00,
2013-03-19 20:50:00,51.0,22.9,30.11,NNW,346,0.0,5.0,33,0.00,,---,0.00,VWS V14.00,2013-03-20 00:50:00,
2013-03-19 20:55:00,50.8,22.8,30.11,ESE,107,0.0,2.0,33,0.00,,---,0.00,VWS V14.00,2013-03-20 00:55:00,
2013-03-19 21:00:00,50.6,24.0,30.11,NNE,22,0.0,2.0,35,0.00,,---,0.00,VWS V14.00,2013-03-20 01:00:00,
2013-03-19 21:05:00,50.4,24.5,30.11,NW,320,0.0,2.0,36,0.00,,---,0.00,VWS V14.00,2013-03-20 01:05:00,
2013-03-19 21:10:00,50.1,23.5,30.11,NNW,328,0.0,2.0,35,0.00,,---,0.00,VWS V14.00,2013-03-20 01:10:00,
2013-03-19 21:15:00,49.8,23.3,30.11,NNW,328,0.0,0.0,35,0.00,,---,0.00,VWS V14.00,2013-03-20 01:15:00,
2013-03-19 21:20:00,49.5,23.7,30.11,NNW,328,0.0,0.0,36,0.00,,---,0.00,VWS V14.00,2013-03-20 01:20:00,
2013-03-19 21:25:00,49.2,22.7,30.11,NNW,328,0.0,1.0,35,0.00,,---,0.00,VWS V14.00,2013-03-20 01:25:00,
2013-03-19 21:30:00,48.8,23.7,30.11,NNW,328,0.0,2.0,37,0.00,,---,0.00,VWS V14.00,2013-03-20 01:30:00,
2013-03-19 21:35:00,48.5,25.3,30.11,NNW,328,0.0,0.0,40,0.00,,---,0.00,VWS V14.00,2013-03-20 01:35:00,
2013-03-19 21:40:00,48.1,24.3,30.11,NNW,328,0.0,0.0,39,0.00,,---,0.00,VWS V14.00,2013-03-20 01:40:00,
2013-03-19 21:45:00,47.8,24.7,30.12,NNW,328,0.0,0.0,40,0.00,,---,0.00,VWS V14.00,2013-03-20 01:45:00,
2013-03-19 21:50:00,47.4,24.9,30.12,NNW,328,0.0,0.0,41,0.00,,---,0.00,VWS V14.00,2013-03-20 01:50:00,
2013-03-19 21:55:00,47.1,24.6,30.12,NNW,328,0.0,0.0,41,0.00,,---,0.00,VWS V14.00,2013-03-20 01:55:00,
2013-03-19 22:00:00,46.7,25.4,30.12,NNW,328,0.0,0.0,43,0.00,,---,0.00,VWS V14.00,2013-03-20 02:00:00,
2013-03-19 22:05:00,46.5,24.7,30.12,NNW,328,0.0,0.0,42,0.00,,---,0.00,VWS V14.00,2013-03-20 02:05:00,
2013-03-19 22:10:00,46.3,26.1,30.12,NNW,328,0.0,0.0,45,0.00,,---,0.00,VWS V14.00,2013-03-20 02:10:00,
2013-03-19 22:15:00,46.0,25.9,30.12,NNW,328,0.0,0.0,45,0.00,,---,0.00,VWS V14.00,2013-03-20 02:15:00,
2013-03-19 22:20:00,45.7,26.6,30.12,NNW,328,0.0,2.0,47,0.00,,---,0.00,VWS V14.00,2013-03-20 02:20:00,
2013-03-19 22:25:00,45.4,25.3,30.12,NNW,328,0.0,1.0,45,0.00,,---,0.00,VWS V14.00,2013-03-20 02:25:00,
2013-03-19 22:30:00,45.2,24.6,30.12,NW,307,0.0,5.0,44,0.00,,---,0.00,VWS V14.00,2013-03-20 02:30:00,
2013-03-19 22:35:00,45.3,24.1,30.12,NW,307,0.0,0.0,43,0.00,,---,0.00,VWS V14.00,2013-03-20 02:35:00,
2013-03-19 22:40:00,45.4,24.2,30.12,NW,307,0.0,1.0,43,0.00,,---,0.00,VWS V14.00,2013-03-20 02:40:00,
2013-03-19 22:45:00,45.4,23.7,30.13,WNW,302,0.0,1.0,42,0.00,,---,0.00,VWS V14.00,2013-03-20 02:45:00,
2013-03-19 22:50:00,45.5,24.3,30.13,SSW,204,1.0,2.0,43,0.00,,---,0.00,VWS V14.00,2013-03-20 02:50:00,
2013-03-19 22:55:00,45.7,23.9,30.13,East,90,0.0,3.0,42,0.00,,---,0.00,VWS V14.00,2013-03-20 02:55:00,
2013-03-19 23:00:00,45.7,24.5,30.13,East,90,0.0,3.0,43,0.00,,---,0.00,VWS V14.00,2013-03-20 03:00:00,
2013-03-19 23:05:00,45.6,25.5,30.13,East,84,0.0,1.0,45,0.00,,---,0.00,VWS V14.00,2013-03-20 03:05:00,
2013-03-19 23:10:00,45.4,24.8,30.13,East,84,0.0,1.0,44,0.00,,---,0.00,VWS V14.00,2013-03-20 03:10:00,
2013-03-19 23:15:00,45.2,24.0,30.13,East,82,0.0,1.0,43,0.00,,---,0.00,VWS V14.00,2013-03-20 03:15:00,
2013-03-19 23:20:00,45.2,25.1,30.13,East,82,0.0,1.0,45,0.00,,---,0.00,VWS V14.00,2013-03-20 03:20:00,
2013-03-19 23:25:00,45.1,25.0,30.13,East,82,0.0,0.0,45,0.00,,---,0.00,VWS V14.00,2013-03-20 03:25:00,
2013-03-19 23:30:00,45.0,25.0,30.13,East,82,0.0,0.0,45,0.00,,---,0.00,VWS V14.00,2013-03-20 03:30:00,
2013-03-19 23:35:00,44.9,27.9,30.13,East,82,0.0,0.0,51,0.00,,---,0.00,VWS V14.00,2013-03-20 03:35:00,
2013-03-19 23:40:00,44.7,26.2,30.13,East,82,0.0,1.0,48,0.00,,---,0.00,VWS V14.00,2013-03-20 03:40:00,
2013-03-19 23:45:00,44.6,27.6,30.13,East,82,0.0,0.0,51,0.00,,---,0.00,VWS V14.00,2013-03-20 03:45:00,
2013-03-19 23:50:00,44.5,27.5,30.13,East,82,0.0,0.0,51,0.00,,---,0.00,VWS V14.00,2013-03-20 03:50:00,
2013-03-19 23:55:00,44.4,26.9,30.13,East,82,0.0,0.0,50,0.00,,---,0.00,VWS V14.00,2013-03-20 03:55:00,